Time;durP1;ratioP1;P1;durP2;ratioP2;P2;SDS_P1;SDS_P2;PMS_P1;PMS_P2;Temp;Humidity;BMP_temperature;BMP_pressure;BME280_temperature;BME280_humidity;BME280_pressure;Samples;Min_cycle;Max_cycle;Signal;HPM_P1;HPM_P2
2023/10/20 00:02:03;;;;;;;11.57;9.75;;;14.80;99.90;;;16.45;70.15;94903.28;5007963;28;20054;-42
2023/10/20 00:04:31;;;;;;;14.55;9.20;;;14.80;99.90;;;16.44;69.92;94901.69;5011986;28;20072;-44
2023/10/20 00:06:59;;;;;;;14.02;10.18;;;14.80;99.90;;;16.45;70.07;94905.19;5011208;28;20034;-46
2023/10/20 00:09:28;;;;;;;11.63;9.40;;;14.80;99.90;;;16.45;70.03;94897.13;5011209;28;20386;-42
2023/10/20 00:11:58;;;;;;;11.93;9.25;;;14.80;99.90;;;16.44;69.93;94890.94;5010671;28;20052;-43
2023/10/20 00:14:25;;;;;;;11.20;9.20;;;14.80;99.90;;;16.46;70.01;94896.03;5011518;28;20487;-43
2023/10/20 00:16:53;;;;;;;13.43;9.23;;;14.80;99.90;;;16.43;70.03;94893.91;5011275;28;20088;-45
2023/10/20 00:19:21;;;;;;;13.20;8.93;;;14.80;99.90;;;16.42;69.86;94892.25;5010987;28;20038;-41
2023/10/20 00:21:48;;;;;;;12.32;9.30;;;14.80;99.90;;;16.41;70.13;94887.97;5011402;28;20050;-43
2023/10/20 00:24:16;;;;;;;9.50;8.32;;;14.80;99.90;;;16.39;69.95;94890.94;5011309;28;20038;-44
2023/10/20 00:26:43;;;;;;;11.40;8.98;;;14.90;99.90;;;16.41;69.89;94896.03;5011303;28;20045;-45
2023/10/20 00:29:11;;;;;;;11.57;7.95;;;14.80;99.90;;;16.39;70.06;94890.13;5011141;28;20046;-44
2023/10/20 00:31:39;;;;;;;10.10;8.30;;;14.80;99.90;;;16.39;69.85;94893.63;5010240;28;20046;-46
2023/10/20 00:34:06;;;;;;;11.68;9.07;;;14.80;99.90;;;16.41;69.89;94896.03;5010090;28;20041;-44
2023/10/20 00:36:34;;;;;;;11.50;8.52;;;14.80;99.90;;;16.41;69.79;94883.41;5011123;28;20041;-43
2023/10/20 00:39:02;;;;;;;11.88;8.27;;;14.80;99.90;;;16.44;69.73;94879.38;5010921;28;20046;-44
2023/10/20 00:41:31;;;;;;;10.32;8.00;;;14.80;99.90;;;16.44;69.80;94863.28;5011772;28;20042;-44
2023/10/20 00:43:59;;;;;;;14.18;9.45;;;14.90;99.90;;;16.45;69.71;94848.78;5011244;28;20045;-43
2023/10/20 00:46:26;;;;;;;12.30;9.20;;;14.90;99.90;;;16.47;69.77;94866.25;5011034;28;20042;-42
2023/10/20 00:48:55;;;;;;;11.25;9.18;;;14.90;99.90;;;16.47;69.77;94866.25;5001595;28;20050;-42
2023/10/20 00:51:24;;;;;;;13.07;8.60;;;14.90;99.90;;;16.45;69.62;94864.91;5010391;28;20510;-44
2023/10/20 00:53:52;;;;;;;10.15;8.40;;;14.80;99.90;;;16.44;69.74;94865.94;5011226;28;20521;-42
2023/10/20 00:56:21;;;;;;;11.38;7.72;;;14.80;99.90;;;16.44;69.63;94860.59;5018710;28;20045;-46
2023/10/20 00:58:48;;;;;;;9.65;7.38;;;14.80;99.90;;;16.43;69.76;94850.94;5013435;28;20429;-42
2023/10/20 01:01:16;;;;;;;10.40;7.40;;;14.80;99.90;;;16.44;69.66;94848.00;5014816;28;20046;-45
2023/10/20 01:03:44;;;;;;;9.07;7.25;;;14.80;99.90;;;16.40;69.60;94838.84;4996147;28;20429;-45
2023/10/20 01:06:12;;;;;;;9.80;7.05;;;14.80;99.90;;;16.38;69.79;94832.13;4997301;28;20042;-42
2023/10/20 01:08:39;;;;;;;11.45;7.50;;;14.90;99.90;;;16.34;69.66;94826.47;5014641;28;20049;-45
2023/10/20 01:11:07;;;;;;;9.48;7.10;;;14.80;99.90;;;16.32;69.98;94826.75;5021540;28;20041;-44
2023/10/20 01:13:36;;;;;;;10.05;6.75;;;14.80;99.90;;;16.34;70.04;94818.41;5014738;28;20056;-44
2023/10/20 01:16:04;;;;;;;8.20;6.60;;;14.90;99.90;;;16.35;69.90;94820.03;5014001;28;20061;-43
2023/10/20 01:18:32;;;;;;;8.52;6.60;;;14.90;99.90;;;16.35;69.71;94812.00;5013155;28;20049;-45
2023/10/20 01:21:00;;;;;;;9.23;6.70;;;14.90;99.90;;;16.29;69.94;94807.69;5014064;28;20037;-43
2023/10/20 01:23:27;;;;;;;7.88;5.93;;;14.90;99.90;;;16.28;69.92;94798.00;5014625;28;20048;-43
2023/10/20 01:25:56;;;;;;;8.80;6.68;;;14.90;99.90;;;16.28;70.00;94793.44;5014490;28;20382;-43
2023/10/20 01:28:24;;;;;;;8.18;7.35;;;14.90;99.90;;;16.27;70.08;94788.38;5006733;28;20635;-42
2023/10/20 01:30:52;;;;;;;7.90;6.38;;;14.90;99.90;;;16.28;69.90;94784.59;5014104;28;20057;-43
2023/10/20 01:33:19;;;;;;;8.73;6.18;;;14.90;99.90;;;16.32;70.15;94780.31;5012562;28;20045;-42
2023/10/20 01:35:47;;;;;;;6.97;5.95;;;14.90;99.90;;;16.38;69.89;94767.69;5013230;28;20046;-44
2023/10/20 01:38:15;;;;;;;6.93;5.70;;;14.90;99.90;;;16.40;69.72;94768.22;5012583;28;20060;-42
2023/10/20 01:40:45;;;;;;;6.78;6.10;;;14.90;99.90;;;16.43;69.93;94756.97;5013985;28;20494;-44
2023/10/20 01:43:12;;;;;;;8.25;5.50;;;14.90;99.90;;;16.47;69.75;94755.34;5014181;28;20049;-44
2023/10/20 01:45:40;;;;;;;7.13;5.65;;;14.90;99.90;;;16.48;69.37;94751.59;5014435;28;20049;-43
2023/10/20 01:48:09;;;;;;;7.80;5.22;;;14.90;99.90;;;16.50;69.57;94744.09;5014377;28;20045;-42
2023/10/20 01:50:37;;;;;;;7.18;5.72;;;14.90;99.90;;;16.48;69.33;94735.50;5012996;28;20057;-43
2023/10/20 01:53:05;;;;;;;6.68;5.20;;;14.90;99.90;;;16.50;69.55;94717.22;5012884;28;20061;-44
2023/10/20 01:55:32;;;;;;;7.57;6.10;;;14.90;99.90;;;16.49;69.37;94705.66;5013068;28;20053;-44
2023/10/20 01:58:00;;;;;;;5.75;5.18;;;14.90;99.90;;;16.50;69.50;94699.22;5012465;28;20053;-44
2023/10/20 02:00:28;;;;;;;8.07;5.88;;;14.90;99.90;;;16.51;69.33;94686.59;5012973;28;20057;-45
2023/10/20 02:02:55;;;;;;;8.80;4.97;;;14.90;99.90;;;16.52;69.20;94688.22;5013601;28;20053;-43
2023/10/20 02:05:23;;;;;;;7.35;5.18;;;14.90;99.90;;;16.51;69.28;94681.22;5004248;28;20050;-43
2023/10/20 02:07:51;;;;;;;6.32;4.97;;;14.90;99.90;;;16.49;69.27;94669.97;5012527;28;20061;-43
2023/10/20 02:10:20;;;;;;;6.05;4.95;;;14.80;99.90;;;16.48;69.27;94653.06;5012391;28;20505;-42
2023/10/20 02:12:47;;;;;;;5.10;4.60;;;14.90;99.90;;;16.49;69.25;94643.09;5012110;28;20042;-45
2023/10/20 02:15:15;;;;;;;7.65;5.82;;;14.90;99.90;;;16.49;69.21;94638.53;5013616;28;20042;-46
2023/10/20 02:17:43;;;;;;;6.78;5.57;;;14.90;99.90;;;16.49;69.19;94629.69;5013513;28;20042;-42
2023/10/20 02:20:12;;;;;;;6.47;5.53;;;14.90;99.90;;;16.49;69.35;94638.53;5012714;28;20421;-42
2023/10/20 02:22:39;;;;;;;6.25;5.25;;;14.90;99.90;;;16.49;69.19;94627.00;5012437;28;20057;-46
2023/10/20 02:25:09;;;;;;;6.35;5.38;;;14.90;99.90;;;16.49;69.18;94625.09;5013364;28;20056;-43
2023/10/20 02:27:42;;;;;;;9.35;6.22;;;14.90;99.90;;;16.48;69.32;94622.72;5013117;28;20033;-46
2023/10/20 02:30:13;;;;;;;8.50;6.65;;;14.80;99.90;;;16.46;69.25;94603.38;5013136;28;20497;-42
2023/10/20 02:32:42;;;;;;;7.88;6.57;;;14.80;99.90;;;16.45;69.38;94591.81;5012170;28;20045;-42
2023/10/20 02:35:11;;;;;;;7.78;5.88;;;14.80;99.90;;;16.45;69.27;94582.97;5013062;28;20042;-44
2023/10/20 02:37:39;;;;;;;7.80;6.47;;;14.80;99.90;;;16.42;69.21;94589.69;5013113;28;20050;-44
2023/10/20 02:40:07;;;;;;;7.68;6.57;;;14.70;99.90;;;16.41;69.53;94590.78;5011575;28;20523;-41
2023/10/20 02:42:35;;;;;;;9.05;6.00;;;14.70;99.90;;;16.42;69.45;94599.63;5009754;28;20449;-44
2023/10/20 02:45:09;;;;;;;8.68;6.32;;;14.70;99.90;;;16.41;69.50;94598.81;5012938;28;20050;-42
2023/10/20 02:47:37;;;;;;;;;;;14.70;99.90;;;16.38;69.24;94602.06;5012366;28;20474;-43
2023/10/20 02:50:06;;;;;;;12.85;8.85;;;14.70;99.90;;;16.39;69.33;94603.66;5012659;28;19921;-45
2023/10/20 02:52:34;;;;;;;11.75;8.25;;;14.60;99.90;;;16.35;69.33;94607.97;5011474;28;20053;-45
2023/10/20 02:55:02;;;;;;;11.27;8.93;;;14.60;99.90;;;16.30;69.38;94602.59;5012864;28;20516;-43
2023/10/20 02:57:29;;;;;;;11.10;8.48;;;14.60;99.90;;;16.28;69.46;94610.13;5011403;28;20049;-41
2023/10/20 02:59:57;;;;;;;10.60;8.85;;;14.50;99.90;;;16.23;69.40;94610.94;5012612;28;20068;-43
2023/10/20 03:02:26;;;;;;;8.80;6.25;;;14.50;99.90;;;16.24;69.65;94609.06;5009823;28;20398;-41
2023/10/20 03:04:55;;;;;;;8.23;6.32;;;14.50;99.90;;;16.23;69.72;94610.94;5011312;28;20042;-42
2023/10/20 03:07:27;;;;;;;8.38;6.55;;;14.60;99.90;;;16.23;69.79;94610.94;5011751;28;20068;-42
2023/10/20 03:09:55;;;;;;;10.13;7.43;;;14.60;99.90;;;16.20;69.91;94613.34;5010912;28;20038;-42
2023/10/20 03:12:24;;;;;;;9.88;8.20;;;14.60;99.90;;;16.20;69.75;94605.31;5011297;28;20054;-43
2023/10/20 03:14:51;;;;;;;9.95;7.78;;;14.60;99.90;;;16.14;69.90;94596.44;5012602;28;20042;-42
2023/10/20 03:17:19;;;;;;;10.05;7.93;;;14.60;99.90;;;16.12;69.90;94567.19;5012219;28;20103;-43
2023/10/20 03:19:48;;;;;;;10.57;7.43;;;14.60;99.90;;;16.10;69.77;94565.88;5011793;28;20061;-42
2023/10/20 03:22:15;;;;;;;9.45;7.43;;;14.60;99.90;;;16.04;69.93;94553.53;5011322;28;20050;-42
2023/10/20 03:24:43;;;;;;;9.45;7.18;;;14.60;99.90;;;16.01;70.12;94549.50;5011514;28;20050;-45
2023/10/20 03:27:10;;;;;;;9.18;6.60;;;14.60;99.90;;;16.04;70.29;94538.25;5011387;28;20524;-42
2023/10/20 03:29:38;;;;;;;8.43;6.22;;;14.60;99.90;;;16.05;70.09;94539.03;5010573;28;20042;-45
2023/10/20 03:32:07;;;;;;;7.50;6.57;;;14.60;99.90;;;16.08;70.23;94542.00;5012144;28;20038;-45
2023/10/20 03:34:35;;;;;;;8.90;5.88;;;14.60;99.90;;;16.08;69.87;94533.94;5010473;28;20037;-45
2023/10/20 03:37:03;;;;;;;7.13;5.72;;;14.60;99.90;;;16.05;69.98;94529.13;5010502;28;20045;-43
2023/10/20 03:39:33;;;;;;;7.82;5.80;;;14.60;99.90;;;16.03;70.18;94522.41;5010851;28;20046;-42
2023/10/20 03:42:02;;;;;;;7.88;5.68;;;14.60;99.90;;;16.07;69.90;94507.38;5012311;28;20053;-43
2023/10/20 03:44:31;;;;;;;9.55;5.57;;;14.60;99.90;;;16.10;70.01;94496.09;5010690;28;20049;-46
2023/10/20 03:47:00;;;;;;;7.05;5.28;;;14.60;99.90;;;16.12;69.91;94486.69;5011072;28;20057;-45
2023/10/20 03:49:32;;;;;;;5.72;4.82;;;14.60;99.90;;;16.16;69.87;94486.16;5011450;28;20064;-42
2023/10/20 03:52:24;;;;;;;7.18;5.25;;;14.60;99.90;;;16.19;69.83;94482.91;5010784;28;20056;-42
2023/10/20 03:54:52;;;;;;;7.95;5.50;;;14.60;99.90;;;16.20;69.92;94466.53;5011555;28;20366;-43
2023/10/20 03:57:19;;;;;;;9.40;5.88;;;14.70;99.90;;;16.20;69.85;94449.66;5026845;28;20054;-42
2023/10/20 03:59:47;;;;;;;9.15;6.68;;;14.70;99.90;;;16.20;69.64;94453.13;5010385;28;20050;-46
2023/10/20 04:02:15;;;;;;;10.20;6.63;;;14.60;99.90;;;16.19;69.62;94448.84;5011793;28;20049;-45
2023/10/20 04:04:42;;;;;;;9.13;7.18;;;14.50;99.90;;;16.19;69.93;94440.81;5010739;28;20056;-44
2023/10/20 04:07:10;;;;;;;10.25;7.20;;;14.60;99.90;;;16.18;69.81;94438.38;5011542;28;20049;-44
2023/10/20 04:09:38;;;;;;;11.90;8.63;;;14.50;99.90;;;16.13;69.90;94420.44;5011411;28;20041;-44
2023/10/20 04:12:07;;;;;;;15.80;8.20;;;14.40;99.90;;;16.11;69.92;94425.25;5010511;28;20038;-41
2023/10/20 04:14:34;;;;;;;12.10;9.07;;;14.40;99.90;;;16.11;69.83;94423.38;5003704;28;20046;-42
2023/10/20 04:17:03;;;;;;;14.38;10.23;;;14.40;99.90;;;16.10;69.79;94429.03;5011509;28;20034;-42
2023/10/20 04:19:30;;;;;;;13.43;9.85;;;14.40;99.90;;;16.09;69.92;94428.22;5011265;28;20042;-42
2023/10/20 04:22:04;;;;;;;13.95;10.73;;;14.40;99.90;;;16.08;69.83;94415.06;5010654;28;20045;-42
2023/10/20 04:24:31;;;;;;;15.43;10.23;;;14.40;99.90;;;16.05;70.15;94397.66;5011494;28;20044;-42
2023/10/20 04:26:59;;;;;;;12.00;9.35;;;14.40;99.90;;;16.03;70.06;94378.34;5011409;28;20493;-44
2023/10/20 04:29:35;;;;;;;14.93;10.50;;;14.40;99.90;;;16.04;69.96;94366.53;5010959;28;20490;-43
2023/10/20 04:51:43;;;;;;;10.38;8.38;;;14.30;99.90;;;15.94;69.92;94332.50;5010706;28;20062;-43
2023/10/20 04:54:09;;;;;;;10.18;8.13;;;14.30;99.90;;;15.92;69.91;94309.72;5011448;28;20053;-41
2023/10/20 04:56:39;;;;;;;10.65;7.43;;;14.20;99.90;;;15.89;69.78;94292.28;5011085;28;20072;-43
2023/10/20 04:59:10;;;;;;;7.95;6.15;;;14.20;99.90;;;15.88;69.92;94285.31;5011052;28;20042;-42
2023/10/20 05:01:41;;;;;;;8.07;6.07;;;14.10;99.90;;;15.86;69.96;94281.31;5011277;28;20494;-41
2023/10/20 05:04:28;;;;;;;7.05;5.35;;;14.10;99.90;;;15.86;70.11;94274.06;5010585;28;20470;-43
2023/10/20 05:07:05;;;;;;;6.20;5.10;;;14.20;99.90;;;15.85;70.17;94258.25;5005456;28;20038;-43
2023/10/20 05:09:35;;;;;;;6.40;5.18;;;14.20;99.90;;;15.85;70.06;94245.63;5010699;28;20041;-44
2023/10/20 05:12:03;;;;;;;10.82;5.53;;;14.20;99.90;;;15.84;69.95;94229.81;5010822;28;20038;-42
2023/10/20 05:14:31;;;;;;;9.02;5.55;;;14.10;99.90;;;15.82;70.30;94226.59;5011217;28;20417;-42
2023/10/20 05:16:59;;;;;;;8.85;4.82;;;14.20;99.90;;;15.80;69.87;94220.72;5011011;28;20045;-43
2023/10/20 05:19:32;;;;;;;5.82;4.95;;;14.20;99.90;;;15.74;70.33;94218.09;5009845;28;20053;-44
2023/10/20 05:22:00;;;;;;;7.18;5.18;;;14.20;99.90;;;15.71;70.36;94213.22;5011258;28;20428;-45
2023/10/20 05:24:27;;;;;;;6.65;5.22;;;14.20;99.90;;;15.70;70.44;94203.59;5010791;28;20054;-44
2023/10/20 05:26:55;;;;;;;6.95;5.22;;;14.20;99.90;;;15.71;70.38;94193.66;5010722;28;20050;-45
2023/10/20 05:29:23;;;;;;;9.98;8.98;;;14.20;99.90;;;15.69;70.37;94183.22;5010336;28;20046;-41
2023/10/20 05:31:50;;;;;;;8.00;5.05;;;14.20;99.90;;;15.70;70.45;94181.31;5010723;28;20067;-44
2023/10/20 05:34:18;;;;;;;7.05;5.85;;;14.20;99.90;;;15.73;70.21;94168.19;5010720;28;20497;-44
2023/10/20 05:36:46;;;;;;;7.32;4.50;;;14.20;99.90;;;15.74;70.30;94167.13;5009594;28;20052;-45
2023/10/20 05:39:13;;;;;;;5.45;4.65;;;14.20;99.90;;;15.77;70.39;94165.78;5009986;28;20050;-43
2023/10/20 05:41:43;;;;;;;8.80;4.75;;;14.30;99.90;;;15.72;70.30;94163.91;5002451;28;20042;-42
2023/10/20 05:44:11;;;;;;;8.68;4.88;;;14.20;99.90;;;15.71;70.43;94156.13;5014289;28;20054;-46
2023/10/20 05:46:40;;;;;;;7.55;5.03;;;14.20;99.90;;;15.71;70.38;94127.44;5021286;28;20042;-43
2023/10/20 05:49:10;;;;;;;7.95;4.90;;;14.20;99.90;;;15.73;70.38;94105.72;5014086;28;20068;-46
2023/10/20 05:51:38;;;;;;;6.00;4.90;;;14.20;99.90;;;15.71;70.28;94105.97;5014034;28;20497;-42
2023/10/20 05:54:07;;;;;;;7.18;4.68;;;14.10;99.90;;;15.74;70.17;94123.41;5014019;28;20042;-44
2023/10/20 05:56:34;;;;;;;6.45;5.00;;;14.10;99.90;;;15.74;70.14;94144.84;5013832;28;20041;-46
2023/10/20 05:59:02;;;;;;;7.25;5.05;;;14.10;99.90;;;15.73;70.31;94138.69;5013450;28;20076;-45
2023/10/20 06:01:30;;;;;;;6.60;4.72;;;14.10;99.90;;;15.74;70.04;94120.72;5013921;28;20045;-47
2023/10/20 06:03:58;;;;;;;6.22;5.10;;;14.10;99.90;;;15.72;70.10;94107.59;5009937;28;20046;-43
2023/10/20 06:06:25;;;;;;;6.80;5.07;;;14.10;99.90;;;15.71;70.21;94126.63;5014059;28;20056;-46
2023/10/20 06:08:53;;;;;;;7.38;5.47;;;14.10;99.90;;;15.70;70.51;94112.44;5013430;28;20057;-46
2023/10/20 06:11:21;;;;;;;8.35;5.68;;;14.10;99.90;;;15.69;70.12;94100.09;5013687;28;20049;-41
2023/10/20 06:13:49;;;;;;;7.82;5.57;;;14.10;99.90;;;15.70;70.33;94087.47;5013722;28;20042;-44
2023/10/20 06:16:17;;;;;;;8.00;4.88;;;14.10;99.90;;;15.68;70.20;94066.34;5013654;28;20045;-43
2023/10/20 06:18:44;;;;;;;7.82;5.40;;;14.00;99.90;;;15.68;70.03;94042.19;5005471;28;20042;-44
2023/10/20 06:21:14;;;;;;;8.75;5.43;;;14.00;99.90;;;15.66;70.18;94032.81;5014388;28;20046;-44
2023/10/20 06:23:43;;;;;;;7.53;4.78;;;14.00;99.90;;;15.62;70.09;94027.22;5013446;28;20050;-45
2023/10/20 06:26:10;;;;;;;6.18;4.82;;;13.90;99.90;;;15.62;70.00;94016.50;5013396;28;20054;-43
2023/10/20 06:28:38;;;;;;;8.45;5.82;;;13.90;99.90;;;15.63;70.10;94026.16;5013255;28;20054;-43
2023/10/20 06:32:10;;;;;;;8.73;5.97;;;13.90;99.90;;;15.61;70.13;94036.34;5013190;28;20034;-43
2023/10/20 06:34:19;;;;;;;8.60;6.13;;;14.00;99.90;;;15.58;70.29;94044.94;5009423;28;20501;-46
2023/10/20 06:36:48;;;;;;;7.45;4.82;;;13.90;99.90;;;15.59;70.31;94030.47;5005359;28;20038;-43
2023/10/20 06:39:18;;;;;;;6.28;5.07;;;13.90;99.90;;;15.59;70.27;94016.28;5011597;28;20050;-42
2023/10/20 06:41:47;;;;;;;9.52;5.93;;;13.90;99.90;;;15.50;70.59;93990.06;5005029;28;20429;-42
2023/10/20 06:44:19;;;;;;;6.63;5.63;;;14.00;99.90;;;15.49;70.82;93993.84;5012552;28;20534;-42
2023/10/20 06:46:47;;;;;;;8.32;5.60;;;14.00;99.90;;;15.47;70.58;93998.66;5013120;28;20049;-41
2023/10/20 06:49:18;;;;;;;6.82;5.18;;;14.00;99.90;;;15.44;70.49;93993.06;5012830;28;20417;-43
2023/10/20 06:51:47;;;;;;;6.43;4.93;;;14.00;99.90;;;15.42;70.74;93997.91;5013170;28;20049;-43
2023/10/20 06:54:17;;;;;;;7.63;4.97;;;14.00;99.90;;;15.41;70.93;93999.78;5012483;28;20041;-41
2023/10/20 06:56:45;;;;;;;7.95;5.75;;;14.00;99.90;;;15.44;70.86;94004.59;5012573;28;20490;-42
2023/10/20 06:59:16;;;;;;;8.32;5.97;;;14.10;99.90;;;15.48;70.84;93988.75;5012523;28;20057;-46
2023/10/20 07:01:44;;;;;;;9.68;5.05;;;14.10;99.90;;;15.54;70.80;93979.56;5012709;28;20050;-44
2023/10/20 07:04:13;;;;;;;9.48;5.80;;;14.00;99.90;;;15.58;70.51;93964.53;5012643;28;20064;-43
2023/10/20 07:06:41;;;;;;;9.00;5.88;;;14.10;99.90;;;15.61;70.42;93966.66;5012436;28;20061;-45
2023/10/20 07:09:13;;;;;;;8.80;5.53;;;14.10;99.90;;;15.61;70.54;93969.31;5011312;28;20418;-45
2023/10/20 07:11:43;;;;;;;8.38;5.93;;;14.10;99.90;;;15.63;70.66;93980.56;5019635;28;20050;-49
2023/10/20 07:14:11;;;;;;;8.73;6.47;;;14.10;99.90;;;15.64;70.52;93976.78;5019400;28;20417;-45
2023/10/20 07:16:38;;;;;;;9.85;6.60;;;14.10;99.90;;;15.68;70.35;93975.16;5012374;28;20048;-46
2023/10/20 07:19:08;;;;;;;8.35;5.93;;;14.10;99.90;;;15.70;70.57;93962.28;5012083;28;20572;-45
2023/10/20 07:21:35;;;;;;;9.15;6.78;;;14.20;99.90;;;15.70;70.41;93961.47;5012052;28;20053;-44
2023/10/20 07:24:03;;;;;;;10.85;6.72;;;14.10;99.90;;;15.71;70.43;93955.03;5012372;28;20347;-47
2023/10/20 07:26:31;;;;;;;9.48;6.35;;;14.20;99.90;;;15.73;70.30;93947.53;5019176;28;20054;-47
2023/10/20 07:28:58;;;;;;;9.68;6.43;;;14.20;99.90;;;15.73;70.16;93948.31;5018786;28;20042;-43
2023/10/20 07:31:26;;;;;;;8.50;6.43;;;14.20;99.90;;;15.76;70.14;93955.00;5011859;28;20049;-43
2023/10/20 07:33:56;;;;;;;8.50;6.35;;;14.20;99.90;;;15.80;70.27;93950.69;5012408;28;20048;-44
2023/10/20 07:36:23;;;;;;;9.23;6.70;;;14.20;99.90;;;15.82;69.96;93953.06;5011793;28;20045;-43
2023/10/20 07:38:51;;;;;;;9.40;7.60;;;14.30;99.90;;;15.81;69.67;93951.47;5003130;28;20034;-43
2023/10/20 07:41:19;;;;;;;12.98;8.50;;;14.30;99.90;;;15.72;69.64;93946.72;5011103;28;20413;-42
2023/10/20 07:43:48;;;;;;;11.93;7.75;;;14.30;99.90;;;15.69;69.75;93944.56;5011507;28;20053;-45
2023/10/20 07:46:17;;;;;;;10.85;7.15;;;14.30;99.90;;;15.73;69.72;93953.69;5011630;28;20057;-45
2023/10/20 07:48:45;;;;;;;12.55;7.70;;;14.30;99.90;;;15.75;69.53;93946.16;5018338;28;20054;-45
2023/10/20 07:51:13;;;;;;;10.18;7.95;;;14.30;99.90;;;15.73;69.60;93936.81;5018953;28;20049;-43
2023/10/20 07:53:41;;;;;;;10.05;7.50;;;14.40;99.90;;;15.73;69.43;93934.91;5011616;28;20046;-42
2023/10/20 07:56:08;;;;;;;12.52;7.95;;;14.40;99.90;;;15.76;69.46;93941.59;5011291;28;20053;-43
2023/10/20 07:58:36;;;;;;;10.95;7.78;;;14.40;99.90;;;15.78;69.10;93952.03;5011422;28;20049;-44
2023/10/20 08:01:06;;;;;;;9.13;7.72;;;14.50;99.90;;;15.78;68.96;93954.72;5011633;28;20069;-44
2023/10/20 08:03:34;;;;;;;9.20;7.65;;;14.50;99.90;;;15.80;69.08;93952.53;5011643;28;20065;-42
2023/10/20 08:06:05;;;;;;;13.25;8.32;;;14.50;99.90;;;15.82;68.88;93956.56;5010785;28;20421;-43
2023/10/20 08:08:33;;;;;;;9.82;8.65;;;14.60;99.90;;;15.80;68.88;93942.63;5010913;28;20053;-42
2023/10/20 08:11:04;;;;;;;12.73;9.57;;;14.60;99.90;;;15.81;68.58;93946.91;5010860;28;20045;-43
2023/10/20 08:13:35;;;;;;;11.27;8.48;;;14.60;99.90;;;15.85;68.94;93952.50;5011463;28;20045;-47
2023/10/20 08:16:06;;;;;;;11.70;9.23;;;14.70;99.90;;;15.92;68.78;93953.75;5011580;28;20052;-45
2023/10/20 08:18:35;;;;;;;11.75;8.77;;;14.70;99.90;;;15.98;68.60;93967.91;5011091;28;20046;-45
2023/10/20 08:21:08;;;;;;;11.52;8.13;;;14.70;99.90;;;16.02;68.33;93970.84;5011197;28;20045;-45
2023/10/20 08:23:37;;;;;;;10.82;8.43;;;14.80;99.90;;;16.04;68.39;93979.41;5011135;28;20121;-42
2023/10/20 08:26:06;;;;;;;13.60;8.45;;;14.80;99.90;;;16.07;68.25;93978.81;5011186;28;20073;-43
2023/10/20 08:28:33;;;;;;;11.10;8.38;;;14.80;99.90;;;16.09;68.30;93990.88;5017852;28;20053;-44
2023/10/20 08:31:07;;;;;;;12.50;9.23;;;14.80;99.90;;;16.10;68.05;93999.72;5011179;28;20493;-43
2023/10/20 08:33:35;;;;;;;11.18;8.45;;;14.80;99.90;;;16.10;67.90;94002.41;5018254;28;20045;-41
2023/10/20 08:36:17;;;;;;;10.25;8.52;;;14.80;99.90;;;16.13;68.11;94018.75;5002318;28;20049;-42
2023/10/20 08:38:47;;;;;;;10.75;8.35;;;14.80;99.90;;;16.19;68.08;94018.66;5010920;28;20041;-42
2023/10/20 08:41:21;;;;;;;12.15;8.95;;;14.90;99.90;;;16.24;68.03;94032.03;5007461;28;20054;-42
2023/10/20 08:43:50;;;;;;;11.43;9.18;;;14.80;99.90;;;16.28;68.05;94030.38;5010301;28;20050;-41
2023/10/20 08:46:19;;;;;;;11.50;9.23;;;14.80;99.90;;;16.31;67.80;94041.34;5010788;28;20443;-44
2023/10/20 08:48:48;;;;;;;11.35;8.93;;;14.80;99.90;;;16.34;67.73;94054.22;5017702;28;20093;-45
2023/10/20 08:51:17;;;;;;;12.43;8.48;;;14.80;99.90;;;16.39;67.78;94074.81;5010706;28;20073;-42
2023/10/20 08:53:45;;;;;;;11.95;9.18;;;14.90;99.90;;;16.43;67.48;94081.22;5010868;28;20057;-43
2023/10/20 08:56:14;;;;;;;10.50;9.00;;;14.90;99.90;;;16.46;67.37;94109.38;5010874;28;20061;-42
2023/10/20 08:58:46;;;;;;;10.32;8.05;;;14.90;99.90;;;16.48;67.51;94128.72;5017716;28;20049;-43
2023/10/20 09:01:16;;;;;;;11.88;7.65;;;14.90;99.90;;;16.38;67.23;94124.25;5010805;28;20057;-42
2023/10/20 09:03:48;;;;;;;9.77;6.63;;;14.90;99.90;;;16.39;67.26;94147.28;5008600;28;20417;-47
2023/10/20 09:06:16;;;;;;;11.80;7.57;;;14.90;99.90;;;16.42;67.34;94152.13;5016634;28;20046;-42
2023/10/20 09:08:49;;;;;;;11.20;6.90;;;14.90;99.90;;;16.45;67.39;94148.06;5010499;28;20049;-45
2023/10/20 09:11:19;;;;;;;9.05;7.00;;;15.00;99.90;;;16.50;67.41;94148.00;5010618;28;20042;-43
2023/10/20 09:13:47;;;;;;;9.70;7.57;;;15.00;99.90;;;16.53;67.21;94142.84;5010904;28;20038;-47
2023/10/20 09:16:15;;;;;;;8.35;6.57;;;15.00;99.90;;;16.58;67.09;94150.06;5010741;28;20041;-44
2023/10/20 09:18:46;;;;;;;8.90;6.97;;;15.10;99.90;;;16.62;67.07;94135.00;5020834;28;20060;-44
2023/10/20 09:21:24;;;;;;;11.90;7.47;;;15.20;99.90;;;16.67;67.42;94131.44;5015374;28;20046;-44
2023/10/20 09:24:03;;;;;;;11.05;7.43;;;15.20;99.90;;;16.71;67.26;94144.03;5022477;28;20057;-44
2023/10/20 09:26:37;;;;;;;9.20;7.05;;;15.20;99.90;;;16.74;67.09;94126.53;5015010;28;20049;-45
2023/10/20 09:29:07;;;;;;;10.02;8.02;;;15.30;99.90;;;16.79;67.20;94128.34;5006928;28;20046;-46
2023/10/20 09:31:37;;;;;;;8.02;7.22;;;15.30;99.90;;;16.82;66.95;94146.63;5013120;28;20073;-46
2023/10/20 09:34:06;;;;;;;9.65;7.13;;;15.30;99.90;;;16.83;66.83;94134.81;5013853;28;20489;-43
2023/10/20 09:36:36;;;;;;;9.23;6.95;;;15.30;99.90;;;16.84;66.69;94137.19;5014061;28;20046;-43
2023/10/20 09:39:08;;;;;;;10.15;7.00;;;15.40;99.90;;;16.87;66.80;94130.47;5013053;28;20064;-42
2023/10/20 09:41:42;;;;;;;11.02;7.38;;;15.40;99.90;;;16.89;66.34;94131.78;5021804;28;20517;-43
2023/10/20 09:44:21;;;;;;;8.25;6.78;;;15.40;99.90;;;16.90;66.41;94141.44;5014904;28;20137;-44
2023/10/20 09:46:59;;;;;;;8.48;6.43;;;15.50;99.90;;;16.98;66.36;94136.50;5021699;28;20054;-42
2023/10/20 09:49:28;;;;;;;11.82;7.10;;;15.60;99.90;;;17.01;66.63;94157.44;5014397;28;20425;-46
2023/10/20 09:51:59;;;;;;;8.43;6.70;;;15.60;99.90;;;17.07;66.88;94169.72;5014810;28;20042;-43
2023/10/20 09:54:33;;;;;;;8.23;6.68;;;15.70;99.90;;;17.13;66.74;94168.56;5021288;28;20213;-44
2023/10/20 09:57:01;;;;;;;8.68;6.90;;;15.80;99.90;;;17.18;66.45;94170.41;5020956;28;20045;-45
2023/10/20 09:59:30;;;;;;;8.75;7.00;;;15.80;99.90;;;17.24;66.76;94180.81;5020683;28;20050;-46
2023/10/20 10:01:59;;;;;;;16.77;7.45;;;15.90;99.90;;;17.29;66.58;94180.75;5013664;28;20049;-44
2023/10/20 10:04:36;;;;;;;8.40;7.22;;;16.00;99.90;;;17.35;66.59;94175.28;5013581;28;20126;-46
2023/10/20 10:07:09;;;;;;;8.88;7.47;;;16.00;99.90;;;17.39;66.58;94190.56;5005983;28;20042;-47
2023/10/20 10:09:41;;;;;;;11.00;7.20;;;16.10;99.90;;;17.42;66.29;94192.69;5013065;28;20464;-43
2023/10/20 10:12:14;;;;;;;8.55;6.25;;;16.10;99.90;;;17.47;66.33;94203.38;5013340;28;20417;-47
2023/10/20 10:14:53;;;;;;;8.00;6.35;;;16.10;99.80;;;17.50;66.43;94208.16;5013919;28;20053;-44
2023/10/20 10:17:23;;;;;;;9.02;6.47;;;16.20;99.90;;;17.57;66.21;94223.16;5013680;28;20061;-46
2023/10/20 10:19:52;;;;;;;7.68;6.07;;;16.20;99.50;;;17.58;66.21;94227.44;5012939;28;20513;-44
2023/10/20 10:22:29;;;;;;;7.95;6.88;;;16.30;99.00;;;17.61;66.20;94226.88;5013493;28;20105;-45
2023/10/20 10:25:00;;;;;;;8.27;5.65;;;16.30;98.50;;;17.68;65.98;94221.91;5027441;28;20049;-44
2023/10/20 10:27:30;;;;;;;7.82;5.53;;;16.40;97.10;;;17.70;65.84;94222.47;5003888;28;20042;-47
2023/10/20 10:30:09;;;;;;;5.90;5.03;;;16.40;97.50;;;17.76;65.92;94242.00;5011779;28;20045;-47
2023/10/20 10:32:52;;;;;;;6.90;5.28;;;16.50;96.50;;;17.71;65.52;94240.19;5020217;28;20053;-45
2023/10/20 10:35:20;;;;;;;6.23;4.33;;;16.50;95.00;;;17.75;65.51;94233.13;5002187;28;20046;-45
2023/10/20 10:37:53;;;;;;;6.97;4.43;;;16.50;96.60;;;17.83;65.58;94226.31;5010579;28;20691;-45
2023/10/20 10:40:22;;;;;;;5.00;4.32;;;16.60;95.80;;;17.87;65.66;94222.78;5012252;28;20050;-47
2023/10/20 10:42:52;;;;;;;5.65;4.70;;;16.70;96.80;;;17.91;65.56;94214.91;5012938;28;20041;-48
2023/10/20 10:45:27;;;;;;;6.85;4.60;;;16.70;97.10;;;17.97;65.74;94221.84;5019974;28;20049;-47
2023/10/20 10:48:08;;;;;;;5.85;4.25;;;16.80;96.50;;;18.01;65.48;94225.56;5012758;28;20421;-46